Terminal Aerodrome Forecast
Issued by NWS

Home | Current Version | Previous Version | Text Only | Print | Product List | Glossary On
Versions: 1 2 3 4 5 6 7 8 9 10 11 12 13 14 15 16 17 18 19 20 21 22 23
000
FTUS42 KMLB 211120
TAFLEE
TAF
KLEE 211120Z 2112/2212 00000KT 3SM BR SCT002 BKN040
      TEMPO 2112/2114 1SM BR BKN002
     FM211400 13006KT P6SM SCT040 BKN250
     FM211800 14008KT P6SM BKN050 OVC100
     FM220300 15005KT P6SM BKN040 OVC080=

USA.gov is the U.S. government's official web portal to all federal, state and local government web resources and services.